Time;durP1;ratioP1;P1;durP2;ratioP2;P2;SDS_P1;SDS_P2;PMS_P1;PMS_P2;Temp;Humidity;BMP_temperature;BMP_pressure;BME280_temperature;BME280_humidity;BME280_pressure;Samples;Min_cycle;Max_cycle;Signal;HPM_P1;HPM_P2
2021/11/14 00:01:03;;;;;;;22.52;14.52;;;;;;;;;;5043001;28;20482;-85
2021/11/14 00:03:29;;;;;;;20.55;13.50;;;;;;;;;;5043320;28;20025;-85
2021/11/14 00:05:55;;;;;;;24.35;13.60;;;;;;;;;;5045352;28;20033;-84
2021/11/14 00:08:22;;;;;;;21.98;13.30;;;;;;;;;;5029033;28;20500;-84
2021/11/14 00:10:53;;;;;;;20.45;13.48;;;;;;;;;;5028800;28;20039;-84
2021/11/14 00:13:19;;;;;;;23.33;14.38;;;;;;;;;;5025110;28;20048;-81
2021/11/14 00:15:44;;;;;;;20.63;13.38;;;;;;;;;;5026662;28;20507;-80
2021/11/14 00:18:10;;;;;;;21.67;13.80;;;;;;;;;;5027443;28;20021;-81
2021/11/14 00:20:37;;;;;;;21.40;13.45;;;;;;;;;;5030926;28;20025;-85
2021/11/14 00:23:04;;;;;;;23.90;13.43;;;;;;;;;;5029987;28;20028;-81
2021/11/14 00:25:29;;;;;;;23.45;14.13;;;;;;;;;;5025934;28;20071;-84
2021/11/14 00:27:55;;;;;;;23.08;13.02;;;;;;;;;;5028633;28;20480;-84
2021/11/14 00:30:21;;;;;;;27.48;15.75;;;;;;;;;;5027481;28;20092;-84
2021/11/14 00:32:47;;;;;;;22.58;14.27;;;;;;;;;;5026335;28;20476;-85
2021/11/14 00:35:15;;;;;;;26.52;15.57;;;;;;;;;;5022077;28;20020;-85
2021/11/14 00:37:40;;;;;;;24.38;14.57;;;;;;;;;;5045593;28;20029;-80
2021/11/14 00:40:10;;;;;;;25.15;15.45;;;;;;;;;;5029675;28;20025;-84
2021/11/14 00:42:36;;;;;;;24.35;14.95;;;;;;;;;;5028646;28;20029;-84
2021/11/14 00:45:03;;;;;;;26.10;15.63;;;;;;;;;;5029466;28;20078;-81
2021/11/14 00:47:29;;;;;;;37.03;17.95;;;;;;;;;;5022099;28;20058;-86
2021/11/14 00:49:54;;;;;;;21.60;14.77;;;;;;;;;;5029228;28;20043;-81
2021/11/14 00:52:19;;;;;;;24.25;15.98;;;;;;;;;;5039124;28;20028;-85
2021/11/14 00:54:45;;;;;;;23.08;15.05;;;;;;;;;;5046546;28;20025;-84
2021/11/14 00:57:10;;;;;;;21.15;14.57;;;;;;;;;;5034479;28;20104;-80
2021/11/14 00:59:36;;;;;;;22.00;15.13;;;;;;;;;;5031107;28;20025;-80
2021/11/14 01:02:01;;;;;;;21.55;14.70;;;;;;;;;;5047146;28;20039;-82
2021/11/14 01:04:26;;;;;;;23.45;14.93;;;;;;;;;;5025307;28;20037;-85
2021/11/14 01:06:52;;;;;;;24.88;16.33;;;;;;;;;;5026157;28;20036;-82
2021/11/14 01:09:17;;;;;;;24.08;16.58;;;;;;;;;;5028568;28;20055;-85
2021/11/14 01:11:43;;;;;;;24.65;15.70;;;;;;;;;;5029007;28;20028;-84
2021/11/14 01:14:08;;;;;;;24.58;16.15;;;;;;;;;;5043275;28;20500;-84
2021/11/14 01:16:34;;;;;;;24.02;15.43;;;;;;;;;;5027429;28;20076;-81
2021/11/14 01:18:59;;;;;;;22.70;15.35;;;;;;;;;;5042430;28;20159;-85
2021/11/14 01:21:27;;;;;;;23.58;15.63;;;;;;;;;;5026715;28;20025;-87
2021/11/14 01:23:55;;;;;;;26.38;15.98;;;;;;;;;;5024808;28;20755;-87
2021/11/14 01:26:21;;;;;;;25.50;16.20;;;;;;;;;;5023983;28;20025;-87
2021/11/14 01:28:47;;;;;;;24.67;15.25;;;;;;;;;;5035952;28;20072;-87
2021/11/14 01:31:12;;;;;;;24.25;15.80;;;;;;;;;;5032392;28;20052;-86
2021/11/14 01:33:38;;;;;;;23.73;15.32;;;;;;;;;;5032629;28;20569;-81
2021/11/14 01:36:05;;;;;;;23.60;14.88;;;;;;;;;;5027964;28;20119;-85
2021/11/14 01:38:31;;;;;;;27.17;14.40;;;;;;;;;;5045423;28;20492;-82
2021/11/14 01:40:59;;;;;;;24.58;14.55;;;;;;;;;;5044125;28;20051;-84
2021/11/14 01:43:35;;;;;;;27.85;15.15;;;;;;;;;;5047661;28;20029;-81
2021/11/14 01:46:01;;;;;;;25.45;15.07;;;;;;;;;;5031500;28;20024;-82
2021/11/14 01:48:26;;;;;;;28.63;14.88;;;;;;;;;;5030320;28;20037;-85
2021/11/14 01:50:52;;;;;;;21.58;14.35;;;;;;;;;;5033138;28;20020;-84
2021/11/14 01:53:18;;;;;;;22.77;14.60;;;;;;;;;;5032776;28;20119;-81
2021/11/14 01:55:45;;;;;;;22.02;14.43;;;;;;;;;;5034252;28;20572;-81
2021/11/14 01:58:15;;;;;;;23.83;14.40;;;;;;;;;;5051668;28;20480;-84
2021/11/14 02:00:55;;;;;;;22.98;14.48;;;;;;;;;;5027051;28;20029;-80
2021/11/14 02:03:22;;;;;;;24.67;14.48;;;;;;;;;;5031769;28;20514;-85
2021/11/14 02:05:48;;;;;;;30.00;14.48;;;;;;;;;;5033987;28;20032;-81
2021/11/14 02:08:13;;;;;;;23.85;14.05;;;;;;;;;;5049166;28;20039;-82
2021/11/14 02:10:41;;;;;;;24.58;14.35;;;;;;;;;;5031793;28;20029;-80
2021/11/14 02:13:08;;;;;;;20.90;13.73;;;;;;;;;;5050827;28;20061;-84
2021/11/14 02:15:35;;;;;;;21.70;13.98;;;;;;;;;;5034061;28;20426;-85
2021/11/14 02:18:02;;;;;;;21.77;13.88;;;;;;;;;;5032245;28;20044;-81
2021/11/14 02:20:27;;;;;;;20.58;13.57;;;;;;;;;;5047480;28;20040;-85
2021/11/14 02:22:53;;;;;;;21.73;13.98;;;;;;;;;;5046110;28;20025;-81
2021/11/14 02:25:21;;;;;;;25.05;13.85;;;;;;;;;;5048764;28;20138;-81
2021/11/14 02:27:51;;;;;;;18.55;12.52;;;;;;;;;;5032531;28;20392;-80
2021/11/14 02:30:18;;;;;;;22.05;14.13;;;;;;;;;;5030944;28;20044;-85
2021/11/14 02:32:44;;;;;;;21.92;13.95;;;;;;;;;;5050596;28;20037;-81
2021/11/14 02:35:10;;;;;;;19.20;12.95;;;;;;;;;;5028450;28;20032;-81
2021/11/14 02:37:36;;;;;;;20.48;12.90;;;;;;;;;;5031121;28;20040;-85
2021/11/14 02:40:03;;;;;;;20.85;13.43;;;;;;;;;;5028910;28;20034;-80
2021/11/14 02:42:29;;;;;;;20.98;13.88;;;;;;;;;;5028231;28;20078;-84
2021/11/14 02:44:54;;;;;;;21.75;13.90;;;;;;;;;;5027727;28;20423;-85
2021/11/14 02:47:19;;;;;;;20.95;13.27;;;;;;;;;;5028589;28;20059;-85
2021/11/14 02:49:45;;;;;;;20.30;14.00;;;;;;;;;;5032613;28;20021;-82
2021/11/14 02:52:13;;;;;;;20.35;13.15;;;;;;;;;;5046465;28;20071;-81
2021/11/14 02:54:38;;;;;;;20.23;13.57;;;;;;;;;;5027506;28;20025;-85
2021/11/14 02:57:04;;;;;;;21.23;13.48;;;;;;;;;;5031850;28;20040;-81
2021/11/14 02:59:30;;;;;;;19.55;13.05;;;;;;;;;;5031685;28;20027;-85
2021/11/14 03:01:56;;;;;;;22.50;14.32;;;;;;;;;;5033676;28;20017;-85
2021/11/14 03:04:25;;;;;;;20.27;13.55;;;;;;;;;;5046748;28;20029;-84
2021/11/14 03:06:52;;;;;;;22.08;14.25;;;;;;;;;;5024671;28;20610;-85
2021/11/14 03:09:18;;;;;;;21.20;13.80;;;;;;;;;;5029730;28;20064;-80
2021/11/14 03:11:44;;;;;;;22.30;14.00;;;;;;;;;;5029617;28;20037;-84
2021/11/14 03:14:10;;;;;;;21.30;14.52;;;;;;;;;;5027067;28;20083;-81
2021/11/14 03:16:35;;;;;;;22.40;14.35;;;;;;;;;;5032664;28;20053;-85
2021/11/14 03:19:01;;;;;;;21.70;14.52;;;;;;;;;;5047636;28;20020;-80
2021/11/14 03:21:27;;;;;;;21.65;13.75;;;;;;;;;;5031769;28;20048;-81
2021/11/14 03:23:54;;;;;;;20.42;13.48;;;;;;;;;;5049021;28;20032;-81
2021/11/14 03:26:20;;;;;;;22.38;14.90;;;;;;;;;;5029060;28;20082;-84
2021/11/14 03:28:45;;;;;;;22.23;14.57;;;;;;;;;;5032788;28;20081;-84
2021/11/14 03:31:11;;;;;;;22.48;14.68;;;;;;;;;;5032940;28;20464;-81
2021/11/14 03:33:36;;;;;;;23.63;15.25;;;;;;;;;;5026103;28;20037;-82
2021/11/14 03:36:08;;;;;;;23.08;14.30;;;;;;;;;;5027894;28;20032;-85
2021/11/14 03:38:40;;;;;;;23.23;14.98;;;;;;;;;;5045750;28;20828;-86
2021/11/14 03:41:08;;;;;;;22.00;14.20;;;;;;;;;;5050756;28;20021;-85
2021/11/14 03:43:35;;;;;;;22.60;14.30;;;;;;;;;;5032898;28;20044;-84
2021/11/14 03:46:01;;;;;;;23.05;14.75;;;;;;;;;;5024642;28;20029;-85
2021/11/14 03:48:26;;;;;;;23.20;14.48;;;;;;;;;;5027937;28;20104;-85
2021/11/14 03:50:53;;;;;;;23.30;14.32;;;;;;;;;;5030229;28;20220;-84
2021/11/14 03:53:20;;;;;;;23.67;14.45;;;;;;;;;;5047687;28;20025;-81
2021/11/14 03:55:46;;;;;;;25.05;13.93;;;;;;;;;;5043804;28;20025;-85
2021/11/14 03:58:12;;;;;;;25.05;14.05;;;;;;;;;;5044412;28;20029;-83
2021/11/14 04:00:45;;;;;;;24.00;13.85;;;;;;;;;;5031852;28;20510;-84
2021/11/14 04:03:11;;;;;;;22.88;14.68;;;;;;;;;;5032627;28;20029;-81
2021/11/14 04:05:37;;;;;;;24.08;14.77;;;;;;;;;;5047452;28;20072;-85
2021/11/14 04:08:09;;;;;;;20.75;13.68;;;;;;;;;;5033629;28;20021;-80
2021/11/14 04:10:35;;;;;;;20.48;13.18;;;;;;;;;;5031039;28;20067;-81
2021/11/14 04:13:00;;;;;;;23.35;13.50;;;;;;;;;;5044593;28;20492;-81
2021/11/14 04:15:26;;;;;;;25.92;14.38;;;;;;;;;;5031010;28;20112;-86
2021/11/14 04:17:55;;;;;;;22.25;14.57;;;;;;;;;;5026650;28;20043;-81
2021/11/14 04:20:22;;;;;;;21.13;14.30;;;;;;;;;;5030249;28;20040;-83
2021/11/14 04:22:48;;;;;;;21.40;13.68;;;;;;;;;;5029204;28;20472;-85
2021/11/14 04:25:13;;;;;;;21.33;14.52;;;;;;;;;;5029989;28;20040;-81
2021/11/14 04:27:39;;;;;;;23.45;13.98;;;;;;;;;;5029473;28;20026;-85
2021/11/14 04:30:05;;;;;;;24.25;14.55;;;;;;;;;;5028180;28;20037;-80
2021/11/14 04:32:31;;;;;;;26.05;14.93;;;;;;;;;;5029126;28;20025;-81
2021/11/14 04:34:56;;;;;;;24.75;14.45;;;;;;;;;;5039060;28;20041;-85
2021/11/14 04:37:22;;;;;;;25.60;15.55;;;;;;;;;;5045396;28;20036;-81
2021/11/14 04:39:47;;;;;;;27.42;15.02;;;;;;;;;;5023212;28;20029;-81
2021/11/14 04:42:12;;;;;;;25.58;14.73;;;;;;;;;;5044689;28;20021;-85
2021/11/14 04:44:38;;;;;;;27.25;15.18;;;;;;;;;;5024417;28;20033;-83
2021/11/14 04:47:04;;;;;;;27.42;15.75;;;;;;;;;;5044392;28;20499;-81
2021/11/14 04:49:29;;;;;;;27.40;15.77;;;;;;;;;;5028392;28;20553;-81
2021/11/14 04:51:55;;;;;;;27.35;16.63;;;;;;;;;;5028991;28;20030;-85
2021/11/14 04:54:21;;;;;;;26.58;15.73;;;;;;;;;;5031135;28;20151;-84
2021/11/14 04:56:47;;;;;;;26.10;14.55;;;;;;;;;;5030671;28;20472;-81
2021/11/14 04:59:13;;;;;;;29.63;16.13;;;;;;;;;;5028823;28;20037;-86
2021/11/14 05:01:38;;;;;;;31.05;16.38;;;;;;;;;;5045964;28;20126;-81
2021/11/14 05:04:04;;;;;;;29.75;16.15;;;;;;;;;;5026254;28;20040;-81
2021/11/14 05:06:30;;;;;;;28.38;16.02;;;;;;;;;;5029836;28;21897;-80
2021/11/14 05:08:55;;;;;;;26.95;15.60;;;;;;;;;;5022191;28;20037;-85
2021/11/14 05:11:21;;;;;;;27.77;15.85;;;;;;;;;;5049019;28;20025;-84
2021/11/14 05:13:46;;;;;;;26.42;15.43;;;;;;;;;;5030151;28;20076;-81
2021/11/14 05:16:12;;;;;;;31.20;16.60;;;;;;;;;;5026552;28;20543;-81
2021/11/14 05:18:39;;;;;;;27.17;15.73;;;;;;;;;;5030201;28;20029;-81
2021/11/14 05:21:06;;;;;;;31.17;17.02;;;;;;;;;;5042186;28;20085;-85
2021/11/14 05:23:31;;;;;;;27.40;15.52;;;;;;;;;;5027031;28;20028;-86
2021/11/14 05:25:57;;;;;;;31.88;16.52;;;;;;;;;;5041944;28;20060;-84
2021/11/14 05:28:22;;;;;;;31.67;15.85;;;;;;;;;;5027194;28;20024;-85
2021/11/14 05:30:48;;;;;;;30.60;17.15;;;;;;;;;;5047399;28;20028;-81
2021/11/14 05:33:13;;;;;;;29.75;17.27;;;;;;;;;;5044145;28;20029;-84
2021/11/14 05:35:39;;;;;;;33.05;16.85;;;;;;;;;;5045319;28;20040;-83
2021/11/14 05:38:05;;;;;;;31.02;17.50;;;;;;;;;;5044786;28;20489;-80
2021/11/14 05:40:31;;;;;;;31.38;16.98;;;;;;;;;;5026004;28;20108;-82
2021/11/14 05:42:57;;;;;;;31.70;17.25;;;;;;;;;;5026419;28;20124;-85
2021/11/14 05:45:22;;;;;;;33.92;17.02;;;;;;;;;;5042085;28;20021;-81
2021/11/14 05:47:48;;;;;;;31.95;17.42;;;;;;;;;;5027583;28;20028;-85
2021/11/14 05:50:14;;;;;;;32.65;17.48;;;;;;;;;;5029673;28;20032;-80
2021/11/14 05:52:40;;;;;;;31.23;17.30;;;;;;;;;;5022249;28;20379;-82
2021/11/14 05:55:07;;;;;;;32.38;17.70;;;;;;;;;;5029550;28;20025;-80
2021/11/14 05:57:44;;;;;;;30.85;16.45;;;;;;;;;;5027349;28;20085;-84
2021/11/14 06:00:15;;;;;;;32.30;17.90;;;;;;;;;;5029069;28;20489;-80
2021/11/14 06:02:45;;;;;;;30.52;16.52;;;;;;;;;;5026776;28;20037;-80
2021/11/14 06:05:13;;;;;;;34.67;17.75;;;;;;;;;;5041289;28;20380;-84
2021/11/14 06:07:38;;;;;;;32.28;17.35;;;;;;;;;;5028301;28;20061;-83
2021/11/14 06:10:05;;;;;;;30.67;16.88;;;;;;;;;;5030546;28;20049;-84
2021/11/14 06:12:31;;;;;;;32.58;17.52;;;;;;;;;;5026804;28;20079;-84
2021/11/14 06:14:56;;;;;;;32.70;17.23;;;;;;;;;;5049325;28;20029;-80
2021/11/14 06:17:22;;;;;;;32.92;17.52;;;;;;;;;;5033570;28;20032;-81
2021/11/14 06:19:51;;;;;;;30.33;16.27;;;;;;;;;;5031406;28;21873;-81
2021/11/14 06:22:18;;;;;;;27.58;15.70;;;;;;;;;;5030604;28;20036;-84
2021/11/14 06:24:44;;;;;;;30.73;17.73;;;;;;;;;;5033976;28;20017;-86
2021/11/14 06:27:10;;;;;;;30.08;16.45;;;;;;;;;;5027281;28;20120;-81
2021/11/14 06:29:35;;;;;;;36.72;17.67;;;;;;;;;;5029291;28;20032;-85
2021/11/14 06:32:01;;;;;;;29.08;16.63;;;;;;;;;;5034489;28;21738;-81
2021/11/14 06:34:26;;;;;;;31.58;17.73;;;;;;;;;;5044551;28;20036;-85
2021/11/14 06:36:52;;;;;;;34.60;17.10;;;;;;;;;;5027900;28;20527;-82
2021/11/14 06:39:18;;;;;;;31.70;17.20;;;;;;;;;;5032147;28;20086;-81
2021/11/14 06:41:44;;;;;;;30.92;17.15;;;;;;;;;;5049610;28;20040;-83
2021/11/14 06:44:10;;;;;;;32.38;16.33;;;;;;;;;;5029486;28;20040;-84
2021/11/14 06:46:35;;;;;;;31.42;17.23;;;;;;;;;;5025431;28;20022;-81
2021/11/14 06:49:00;;;;;;;32.38;17.35;;;;;;;;;;5035566;28;20049;-84
2021/11/14 06:51:26;;;;;;;31.40;16.02;;;;;;;;;;5047848;28;20502;-80
2021/11/14 06:53:51;;;;;;;28.95;16.45;;;;;;;;;;5047301;28;20021;-82
2021/11/14 06:56:16;;;;;;;32.25;17.98;;;;;;;;;;5028310;28;20021;-83
2021/11/14 06:58:42;;;;;;;30.23;16.77;;;;;;;;;;5028273;28;20171;-84
2021/11/14 07:01:07;;;;;;;31.10;17.48;;;;;;;;;;5032183;28;20053;-81
2021/11/14 07:03:33;;;;;;;33.70;19.23;;;;;;;;;;5050350;28;20043;-80
2021/11/14 07:05:58;;;;;;;31.92;18.15;;;;;;;;;;5032563;28;20104;-83
2021/11/14 07:08:23;;;;;;;33.03;17.88;;;;;;;;;;5027191;28;20430;-81
2021/11/14 07:10:49;;;;;;;33.05;16.85;;;;;;;;;;5033183;28;20115;-81
2021/11/14 07:13:14;;;;;;;31.08;18.20;;;;;;;;;;5028131;28;20036;-85
2021/11/14 07:15:40;;;;;;;33.05;18.10;;;;;;;;;;5025663;28;20484;-80
2021/11/14 07:18:05;;;;;;;33.05;17.75;;;;;;;;;;5027171;28;20484;-81
2021/11/14 07:20:31;;;;;;;32.75;17.25;;;;;;;;;;5028467;28;20039;-84
2021/11/14 07:22:57;;;;;;;31.27;17.23;;;;;;;;;;5030873;28;20538;-84
2021/11/14 07:25:23;;;;;;;36.80;18.10;;;;;;;;;;5029877;28;20116;-80
2021/11/14 07:27:52;;;;;;;34.72;18.50;;;;;;;;;;5042246;28;20373;-84
2021/11/14 07:30:30;;;;;;;33.58;17.27;;;;;;;;;;5028034;28;20037;-84
2021/11/14 07:32:55;;;;;;;29.63;16.98;;;;;;;;;;5028463;28;20029;-83
2021/11/14 07:35:23;;;;;;;35.72;18.23;;;;;;;;;;5032478;28;20029;-80
2021/11/14 07:37:49;;;;;;;36.78;17.42;;;;;;;;;;5028689;28;20036;-84
2021/11/14 07:40:16;;;;;;;32.65;17.13;;;;;;;;;;5026541;28;20066;-80
2021/11/14 07:42:44;;;;;;;34.38;17.50;;;;;;;;;;5045427;28;20037;-85
2021/11/14 07:45:12;;;;;;;32.70;16.48;;;;;;;;;;5031929;28;20033;-85
2021/11/14 07:47:38;;;;;;;31.98;15.90;;;;;;;;;;5044908;28;20028;-81
2021/11/14 07:50:04;;;;;;;32.88;16.50;;;;;;;;;;5032886;28;20037;-80
2021/11/14 07:52:31;;;;;;;31.77;16.05;;;;;;;;;;5024633;28;20025;-84
2021/11/14 07:54:57;;;;;;;33.85;17.38;;;;;;;;;;5046013;28;20055;-80
2021/11/14 07:57:25;;;;;;;31.90;15.77;;;;;;;;;;5026140;28;20039;-82
2021/11/14 07:59:51;;;;;;;33.35;15.70;;;;;;;;;;5023320;28;20025;-82
2021/11/14 08:02:17;;;;;;;33.70;16.58;;;;;;;;;;5046771;28;20074;-81
2021/11/14 08:04:43;;;;;;;32.83;16.30;;;;;;;;;;5025449;28;20041;-80
2021/11/14 08:07:08;;;;;;;34.47;16.88;;;;;;;;;;5023342;28;20029;-85
2021/11/14 08:09:34;;;;;;;33.95;16.45;;;;;;;;;;5021938;28;20025;-83
2021/11/14 08:12:00;;;;;;;31.98;16.63;;;;;;;;;;5023126;28;20041;-83
2021/11/14 08:14:25;;;;;;;34.53;16.17;;;;;;;;;;5022490;28;20851;-84
2021/11/14 08:16:51;;;;;;;32.33;15.82;;;;;;;;;;5015494;28;20092;-83
2021/11/14 08:19:16;;;;;;;31.75;16.27;;;;;;;;;;5035669;28;20033;-83
2021/11/14 08:21:41;;;;;;;31.52;16.15;;;;;;;;;;5024585;28;20037;-81
2021/11/14 08:24:07;;;;;;;31.65;15.02;;;;;;;;;;5024426;28;20056;-81
2021/11/14 08:26:33;;;;;;;29.63;15.60;;;;;;;;;;5025260;28;20029;-84
2021/11/14 08:28:58;;;;;;;31.60;14.77;;;;;;;;;;5023954;28;20033;-86
2021/11/14 08:31:25;;;;;;;28.92;14.55;;;;;;;;;;5023499;28;20491;-81
2021/11/14 08:33:51;;;;;;;28.95;14.90;;;;;;;;;;5020059;28;20025;-83
2021/11/14 08:36:17;;;;;;;28.88;15.90;;;;;;;;;;5023210;28;20032;-83
2021/11/14 08:38:43;;;;;;;29.15;14.85;;;;;;;;;;5020336;28;20044;-82
2021/11/14 08:41:09;;;;;;;31.50;15.32;;;;;;;;;;5025865;28;20025;-85
2021/11/14 08:43:37;;;;;;;30.10;15.88;;;;;;;;;;5022333;28;20137;-81
2021/11/14 08:46:02;;;;;;;31.92;15.98;;;;;;;;;;5023652;28;20037;-82
2021/11/14 08:48:27;;;;;;;33.30;16.17;;;;;;;;;;5019590;28;20036;-80
2021/11/14 08:51:06;;;;;;;32.03;16.15;;;;;;;;;;5023259;28;20499;-80
2021/11/14 08:53:37;;;;;;;32.75;16.33;;;;;;;;;;5022905;28;20599;-81
2021/11/14 08:56:06;;;;;;;32.92;16.05;;;;;;;;;;5016892;28;20061;-82
2021/11/14 08:58:33;;;;;;;30.58;15.13;;;;;;;;;;5023298;28;20029;-80
2021/11/14 09:00:59;;;;;;;29.48;15.60;;;;;;;;;;5024039;28;20029;-82
2021/11/14 09:03:43;;;;;;;33.70;15.90;;;;;;;;;;5020518;28;20033;-80
2021/11/14 09:09:46;;;;;;;31.15;16.15;;;;;;;;;;5020423;28;20503;-81
2021/11/14 09:12:14;;;;;;;31.88;15.35;;;;;;;;;;5039074;28;20087;-82
2021/11/14 09:14:46;;;;;;;30.25;14.82;;;;;;;;;;5020191;28;20048;-80
2021/11/14 09:17:15;;;;;;;32.17;16.03;;;;;;;;;;5034449;28;20042;-86
2021/11/14 09:19:47;;;;;;;31.17;15.50;;;;;;;;;;5036521;28;20049;-81
2021/11/14 09:22:16;;;;;;;32.05;15.25;;;;;;;;;;5022319;28;20025;-85
2021/11/14 09:24:50;;;;;;;33.30;16.15;;;;;;;;;;5020888;28;20029;-81
2021/11/14 09:27:51;;;;;;;30.05;15.48;;;;;;;;;;5030389;28;20194;-80
2021/11/14 09:30:18;;;;;;;30.30;16.25;;;;;;;;;;4998414;28;20552;-83
2021/11/14 09:32:50;;;;;;;32.42;16.13;;;;;;;;;;4988099;28;20117;-80
2021/11/14 09:35:18;;;;;;;30.27;16.23;;;;;;;;;;5009027;28;20042;-83
2021/11/14 09:37:49;;;;;;;31.10;16.15;;;;;;;;;;5019229;28;20048;-81
2021/11/14 09:40:54;;;;;;;29.88;15.27;;;;;;;;;;5036609;28;20432;-86
2021/11/14 09:43:20;;;;;;;33.85;16.08;;;;;;;;;;5008470;28;20217;-86
2021/11/14 09:45:54;;;;;;;30.95;15.77;;;;;;;;;;5024069;28;20492;-81
2021/11/14 09:48:21;;;;;;;33.28;16.35;;;;;;;;;;5024428;28;20051;-82
2021/11/14 09:51:22;;;;;;;34.53;16.73;;;;;;;;;;5045502;28;20048;-86
2021/11/14 09:54:00;;;;;;;;;;;;;;;;;;;;;
2021/11/14 09:56:53;;;;;;;30.13;15.52;;;;;;;;;;5028066;28;20044;-81
2021/11/14 09:59:22;;;;;;;31.63;16.17;;;;;;;;;;5028123;28;20472;-83
2021/11/14 10:01:56;;;;;;;31.58;16.08;;;;;;;;;;5046000;28;20033;-86
2021/11/14 10:04:23;;;;;;;35.25;17.25;;;;;;;;;;5042551;28;20384;-85
2021/11/14 10:07:24;;;;;;;32.97;16.50;;;;;;;;;;5028827;28;20021;-85
2021/11/14 10:09:59;;;;;;;30.35;16.05;;;;;;;;;;5047160;28;20030;-82
2021/11/14 10:12:55;;;;;;;30.10;16.02;;;;;;;;;;5025703;28;20052;-82
2021/11/14 10:16:26;;;;;;;29.73;15.77;;;;;;;;;;5010405;28;20030;-86
2021/11/14 10:18:59;;;;;;;29.48;14.80;;;;;;;;;;4916183;29;20504;-81
2021/11/14 10:21:26;;;;;;;;;;;;;;;;;;4916564;29;20582;-85
2021/11/14 10:24:26;;;;;;;28.95;14.93;;;;;;;;;;4936922;28;19923;-83
2021/11/14 10:27:30;;;;;;;28.60;15.30;;;;;;;;;;4930348;29;20526;-83
2021/11/14 10:29:59;;;;;;;32.17;16.35;;;;;;;;;;4899793;29;20040;-83
2021/11/14 10:32:28;;;;;;;30.25;15.82;;;;;;;;;;4903557;29;20045;-86
2021/11/14 10:35:01;;;;;;;31.92;16.50;;;;;;;;;;4883637;29;20036;-82
2021/11/14 10:40:41;;;;;;;;;;;;;;;;;;;;;
2021/11/14 10:43:30;;;;;;;29.13;15.90;;;;;;;;;;4899152;29;19928;-82
2021/11/14 10:50:31;;;;;;;32.28;16.15;;;;;;;;;;4932742;29;20039;-83
2021/11/14 10:53:33;;;;;;;29.65;16.33;;;;;;;;;;4871775;29;20036;-84
2021/11/14 10:56:32;;;;;;;30.20;16.98;;;;;;;;;;4835716;29;20041;-81
2021/11/14 10:59:31;;;;;;;33.65;16.83;;;;;;;;;;4896626;29;20056;-83
2021/11/14 11:02:13;;;;;;;;;;;;;;;;;;;;;
2021/11/14 11:05:32;;;;;;;33.83;16.50;;;;;;;;;;4894442;29;20541;-83
2021/11/14 11:08:33;;;;;;;29.92;16.00;;;;;;;;;;5118320;22;20080;-83
2021/11/14 11:14:07;;;;;;;33.28;16.00;;;;;;;;;;5019238;28;20063;-83
2021/11/14 11:17:03;;;;;;;28.63;16.20;;;;;;;;;;5010566;28;20073;-83
2021/11/14 11:19:34;;;;;;;30.05;15.82;;;;;;;;;;4986619;28;20026;-81
2021/11/14 11:22:20;;;;;;;;;;;;;;;;;;;;;
2021/11/14 11:25:07;;;;;;;25.33;14.82;;;;;;;;;;4949718;28;20072;-82
2021/11/14 11:27:36;;;;;;;31.88;15.82;;;;;;;;;;5012032;28;20033;-81
2021/11/14 11:30:07;;;;;;;30.90;15.40;;;;;;;;;;5013089;28;20656;-82
2021/11/14 11:33:07;;;;;;;30.67;15.40;;;;;;;;;;4999520;28;20048;-80
2021/11/14 11:36:08;;;;;;;33.72;15.77;;;;;;;;;;5003660;28;20140;-83
2021/11/14 11:44:40;;;;;;;29.10;14.38;;;;;;;;;;5016511;28;20539;-85
2021/11/14 11:47:12;;;;;;;29.80;14.18;;;;;;;;;;5001264;28;20033;-80
2021/11/14 11:53:13;;;;;;;28.88;14.30;;;;;;;;;;4991727;28;20049;-85
2021/11/14 11:55:41;;;;;;;29.58;14.25;;;;;;;;;;4987449;28;20037;-81
2021/11/14 11:58:41;;;;;;;30.88;15.18;;;;;;;;;;5037873;28;20053;-81
2021/11/14 12:02:12;;;;;;;25.70;13.85;;;;;;;;;;4958952;28;20148;-81
2021/11/14 12:05:19;;;;;;;31.02;14.95;;;;;;;;;;4937230;28;20134;-81
2021/11/14 12:08:16;;;;;;;31.67;15.18;;;;;;;;;;5129023;22;20865;-81
2021/11/14 12:11:26;;;;;;;;;;;;;;;;;;;;;
2021/11/14 12:14:45;;;;;;;31.02;14.80;;;;;;;;;;4978334;28;20046;-82
2021/11/14 12:17:11;;;;;;;31.85;15.57;;;;;;;;;;4978344;28;20038;-83
2021/11/14 12:19:39;;;;;;;30.02;14.43;;;;;;;;;;4958811;28;20030;-85
2021/11/14 12:22:09;;;;;;;30.25;15.43;;;;;;;;;;4971964;28;20033;-81
2021/11/14 12:24:50;;;;;;;30.05;15.05;;;;;;;;;;4998668;28;20937;-81
2021/11/14 12:27:27;;;;;;;32.67;15.45;;;;;;;;;;4995886;28;20030;-84
2021/11/14 12:30:05;;;;;;;30.42;14.98;;;;;;;;;;4990171;28;20030;-82
2021/11/14 12:32:45;;;;;;;28.33;14.20;;;;;;;;;;4993726;28;20034;-81
2021/11/14 12:35:36;;;;;;;31.52;15.38;;;;;;;;;;4995542;28;20744;-85
2021/11/14 12:38:05;;;;;;;31.75;14.95;;;;;;;;;;4994209;28;20120;-80
2021/11/14 12:40:42;;;;;;;30.58;15.65;;;;;;;;;;4995381;28;20068;-80
2021/11/14 12:43:15;;;;;;;31.20;15.70;;;;;;;;;;5008572;28;20063;-83
2021/11/14 12:45:56;;;;;;;27.80;14.55;;;;;;;;;;5008270;28;20026;-85
2021/11/14 12:48:25;;;;;;;33.10;15.98;;;;;;;;;;4993522;28;20034;-82
2021/11/14 12:51:06;;;;;;;26.83;14.50;;;;;;;;;;4998604;28;20084;-83
2021/11/14 12:53:54;;;;;;;27.85;14.75;;;;;;;;;;5002846;28;20642;-84
2021/11/14 12:56:35;;;;;;;28.58;14.80;;;;;;;;;;5006776;28;20032;-84
2021/11/14 12:59:24;;;;;;;29.38;15.38;;;;;;;;;;4998231;28;20080;-83
2021/11/14 13:02:03;;;;;;;29.92;16.10;;;;;;;;;;4990246;28;20080;-83
2021/11/14 13:04:30;;;;;;;30.45;15.80;;;;;;;;;;4999020;28;20072;-82
2021/11/14 13:06:59;;;;;;;35.80;16.60;;;;;;;;;;4989387;28;20520;-85
2021/11/14 13:09:27;;;;;;;32.08;15.98;;;;;;;;;;4977363;28;20037;-87
2021/11/14 13:12:04;;;;;;;31.85;16.02;;;;;;;;;;4978072;28;20129;-84
2021/11/14 13:14:34;;;;;;;32.13;16.40;;;;;;;;;;4976076;28;20057;-85
2021/11/14 13:16:59;;;;;;;32.08;16.88;;;;;;;;;;4983154;28;20042;-83
2021/11/14 13:19:25;;;;;;;34.17;16.88;;;;;;;;;;4983098;28;20027;-83
2021/11/14 13:21:51;;;;;;;34.17;16.17;;;;;;;;;;4983482;28;20500;-87
2021/11/14 13:24:18;;;;;;;31.35;15.18;;;;;;;;;;4984896;28;20030;-85
2021/11/14 13:26:57;;;;;;;37.10;16.40;;;;;;;;;;4987757;28;20023;-82
2021/11/14 13:29:31;;;;;;;28.38;15.27;;;;;;;;;;4992402;28;21373;-87
2021/11/14 13:32:04;;;;;;;31.17;15.95;;;;;;;;;;4986194;28;20026;-82
2021/11/14 13:34:35;;;;;;;31.38;15.48;;;;;;;;;;4989468;28;20061;-81
2021/11/14 13:37:12;;;;;;;31.50;15.68;;;;;;;;;;4983506;28;20046;-81
2021/11/14 13:39:45;;;;;;;30.67;15.80;;;;;;;;;;4978939;28;20570;-82
2021/11/14 13:42:17;;;;;;;34.15;16.52;;;;;;;;;;4996561;28;20492;-82
2021/11/14 13:44:50;;;;;;;31.83;16.00;;;;;;;;;;4982177;28;20095;-82
2021/11/14 13:47:16;;;;;;;;;;;;;;;;;;4979222;28;20113;-81
2021/11/14 13:49:55;;;;;;;34.83;16.33;;;;;;;;;;4985484;28;20431;-83
2021/11/14 13:52:29;;;;;;;36.38;16.20;;;;;;;;;;4982464;28;20034;-82
2021/11/14 13:58:35;;;;;;;34.63;16.20;;;;;;;;;;4979600;28;20053;-84
2021/11/14 14:01:02;;;;;;;35.00;16.13;;;;;;;;;;4993668;28;20043;-83
2021/11/14 14:03:34;;;;;;;34.88;17.05;;;;;;;;;;4980996;28;20625;-82
2021/11/14 14:06:06;;;;;;;35.33;17.43;;;;;;;;;;4980067;28;20021;-82
2021/11/14 14:08:33;;;;;;;33.92;16.23;;;;;;;;;;4981541;28;20291;-81
2021/11/14 14:11:05;;;;;;;34.83;16.83;;;;;;;;;;4987258;28;20045;-82
2021/11/14 14:13:36;;;;;;;35.97;17.30;;;;;;;;;;4979313;28;20032;-81
2021/11/14 14:16:06;;;;;;;33.10;17.40;;;;;;;;;;4980842;28;20543;-82
2021/11/14 14:18:38;;;;;;;36.35;18.27;;;;;;;;;;4978281;28;20057;-84
2021/11/14 14:21:05;;;;;;;36.15;18.23;;;;;;;;;;4984608;28;20045;-84
2021/11/14 14:23:35;;;;;;;39.08;19.30;;;;;;;;;;4985301;28;20033;-81
2021/11/14 14:26:27;;;;;;;;;;;;;;;;;;;;;
2021/11/14 14:28:57;;;;;;;34.87;16.97;;;;;;;;;;4980576;28;20041;-85
2021/11/14 14:31:36;;;;;;;36.90;18.48;;;;;;;;;;4983742;28;20308;-83
2021/11/14 14:34:10;;;;;;;34.55;18.10;;;;;;;;;;4980148;28;20232;-85
2021/11/14 14:36:37;;;;;;;34.30;19.25;;;;;;;;;;4985652;28;21393;-82
2021/11/14 14:39:10;;;;;;;38.72;19.73;;;;;;;;;;4982903;28;20037;-85
2021/11/14 14:41:37;;;;;;;36.03;19.13;;;;;;;;;;4984257;28;20125;-86
2021/11/14 14:44:09;;;;;;;34.92;18.73;;;;;;;;;;4985798;28;20121;-81
2021/11/14 14:46:40;;;;;;;36.42;18.90;;;;;;;;;;4984424;28;20026;-81
2021/11/14 14:49:25;;;;;;;33.70;17.75;;;;;;;;;;4980649;28;20703;-82
2021/11/14 14:52:17;;;;;;;34.20;18.48;;;;;;;;;;4984362;28;20048;-84
2021/11/14 14:54:43;;;;;;;37.10;19.38;;;;;;;;;;4983039;28;20064;-86
2021/11/14 14:57:13;;;;;;;31.85;17.42;;;;;;;;;;4984075;28;20030;-82
2021/11/14 14:59:58;;;;;;;;;;;;;;;;;;;;;
2021/11/14 15:09:46;;;;;;;29.77;16.75;;;;;;;;;;4975383;28;20053;-84
2021/11/14 15:12:12;;;;;;;31.23;17.08;;;;;;;;;;4997396;28;20122;-80
2021/11/14 15:14:39;;;;;;;35.75;17.55;;;;;;;;;;4983972;28;20034;-86
2021/11/14 15:17:25;;;;;;;32.95;16.48;;;;;;;;;;4984326;28;20034;-84
2021/11/14 15:20:13;;;;;;;32.17;16.77;;;;;;;;;;4979637;28;22287;-81